Time;durP1;ratioP1;P1;durP2;ratioP2;P2;SDS_P1;SDS_P2;PMS_P1;PMS_P2;Temp;Humidity;BMP_temperature;BMP_pressure;BME280_temperature;BME280_humidity;BME280_pressure;Samples;Min_cycle;Max_cycle;Signal;HPM_P1;HPM_P2
2021/11/16 00:01:27;;;;;;;;;;;;;;;8.53;61.91;101115.31;4378801;32;34066;-94
2021/11/16 00:04:18;;;;;;;;;;;;;;;8.66;61.45;101110.75;4382475;32;34123;-94
2021/11/16 00:06:57;;;;;;;;;;;;;;;8.31;62.58;101125.25;4377073;32;32665;-93
2021/11/16 00:09:49;;;;;;;;;;;;;;;8.45;62.04;101115.44;4402141;32;32425;-93
2021/11/16 00:12:40;;;;;;;;;;;;;;;8.05;62.65;101108.91;4395097;32;32922;-94
2021/11/16 00:15:31;;;;;;;;;;;;;;;8.24;62.35;101120.94;4409507;32;33199;-91
2021/11/16 00:18:20;;;;;;;;;;;;;;;8.31;61.38;101113.81;4401059;32;32775;-92
2021/11/16 00:21:12;;;;;;;;;;;;;;;8.02;62.33;101116.81;4417040;32;31878;-92
2021/11/16 00:23:56;;;;;;;;;;;;;;;8.10;62.16;101109.72;4381467;32;32954;-92
2021/11/16 00:26:50;;;;;;;;;;;;;;;8.01;62.55;101105.44;4368548;32;32956;-92
2021/11/16 00:29:37;;;;;;;;;;;;;;;7.83;63.00;101118.81;4385905;32;32694;-91
2021/11/16 00:32:43;;;;;;;;;;;;;;;7.84;62.70;101116.19;4379080;32;31729;-92
2021/11/16 00:35:22;;;;;;;;;;;;;;;7.73;63.01;101120.66;4392144;32;32874;-93
2021/11/16 00:38:15;;;;;;;;;;;;;;;7.55;63.57;101118.22;4385826;32;31953;-96
2021/11/16 00:40:56;;;;;;;;;;;;;;;7.95;62.29;101114.28;4388067;32;34966;-96
2021/11/16 00:43:41;;;;;;;;;;;;;;;7.82;62.55;101109.19;4384801;32;32658;-96
2021/11/16 00:50:37;;;;;;;;;;;;;;;7.52;63.82;101111.25;4417439;32;35403;-96
2021/11/16 00:53:29;;;;;;;;;;;;;;;7.43;63.61;101120.09;4385475;32;33345;-96
2021/11/16 00:56:13;;;;;;;;;;;;;;;7.46;63.82;101118.34;4428266;32;32989;-96
2021/11/16 00:59:04;;;;;;;;;;;;;;;7.03;64.42;101124.84;4418780;32;34008;-95
2021/11/16 01:01:49;;;;;;;;;;;;;;;6.89;65.69;101127.59;4368955;32;32579;-96
2021/11/16 01:04:34;;;;;;;;;;;;;;;6.66;66.42;101135.59;4397543;32;34104;-93
2021/11/16 01:07:25;;;;;;;;;;;;;;;7.11;64.61;101128.25;4380081;32;31760;-91
2021/11/16 01:10:05;;;;;;;;;;;;;;;6.26;68.01;101140.19;4375793;32;32937;-92
2021/11/16 01:12:57;;;;;;;;;;;;;;;6.07;68.29;101143.78;4379042;32;34241;-94
2021/11/16 01:15:41;;;;;;;;;;;;;;;6.83;66.74;101139.84;4408924;32;34085;-94
2021/11/16 01:18:38;;;;;;;;;;;;;;;6.64;66.97;101147.84;4399638;32;33654;-96
2021/11/16 01:21:18;;;;;;;;;;;;;;;6.78;68.08;101150.41;4415011;32;33500;-96
2021/11/16 01:28:25;;;;;;;;;;;;;;;7.37;69.45;101142.94;4420722;32;35818;-96
2021/11/16 01:31:17;;;;;;;;;;;;;;;7.52;71.86;101134.91;4370760;32;31177;-96
2021/11/16 01:34:01;;;;;;;;;;;;;;;7.84;71.20;101145.09;4409383;32;33193;-95
2021/11/16 01:36:42;;;;;;;;;;;;;;;8.05;71.09;101137.84;4400379;32;33366;-96
2021/11/16 01:39:27;;;;;;;;;;;;;;;8.11;71.19;101145.66;4422574;32;33701;-96
2021/11/16 01:42:09;;;;;;;;;;;;;;;8.23;71.19;101134.12;4419091;32;31918;-95
2021/11/16 01:45:00;;;;;;;;;;;;;;;8.57;70.14;101130.16;4418715;32;33248;-94
2021/11/16 01:47:39;;;;;;;;;;;;;;;8.66;69.75;101122.13;4408626;32;33029;-92
2021/11/16 01:50:30;;;;;;;;;;;;;;;8.86;68.80;101124.47;4411464;32;33146;-94
2021/11/16 01:53:09;;;;;;;;;;;;;;;8.72;69.35;101134.34;4402248;32;33050;-95
2021/11/16 01:56:00;;;;;;;;;;;;;;;8.77;69.33;101132.50;4366434;32;32901;-94
2021/11/16 01:58:40;;;;;;;;;;;;;;;8.90;68.55;101123.53;4391633;32;32839;-94
2021/11/16 02:01:31;;;;;;;;;;;;;;;9.12;68.09;101133.72;4392580;32;32805;-92
2021/11/16 02:04:22;;;;;;;;;;;;;;;8.88;68.71;101120.06;4381459;32;32229;-95
2021/11/16 02:07:13;;;;;;;;;;;;;;;9.26;67.44;101121.19;4411617;32;32356;-93
2021/11/16 02:09:52;;;;;;;;;;;;;;;9.55;66.24;101114.53;4382452;32;33437;-94
2021/11/16 02:12:44;;;;;;;;;;;;;;;9.21;67.41;101110.72;4422128;32;32953;-94
2021/11/16 02:15:26;;;;;;;;;;;;;;;9.66;65.86;101099.38;4416918;32;32354;-93
2021/11/16 02:18:17;;;;;;;;;;;;;;;9.49;66.15;101108.47;4399904;32;33586;-94
2021/11/16 02:20:56;;;;;;;;;;;;;;;9.33;67.13;101117.53;4417431;32;33064;-92
2021/11/16 02:23:44;;;;;;;;;;;;;;;9.34;67.13;101114.00;4393055;32;33232;-92
2021/11/16 02:26:23;;;;;;;;;;;;;;;9.31;67.28;101107.94;4388617;32;33191;-95
2021/11/16 02:29:14;;;;;;;;;;;;;;;9.49;66.56;101113.75;4418972;32;32666;-95
2021/11/16 02:31:54;;;;;;;;;;;;;;;9.90;65.27;101104.16;4406548;32;32686;-95
2021/11/16 02:34:45;;;;;;;;;;;;;;;9.98;64.52;101110.16;4404032;32;33490;-96
2021/11/16 02:37:24;;;;;;;;;;;;;;;9.91;65.07;101111.16;4401706;32;32574;-93
2021/11/16 02:44:18;;;;;;;;;;;;;;;9.94;64.76;101108.47;4417346;32;35199;-91
2021/11/16 02:47:21;;;;;;;;;;;;;;;10.07;64.15;101103.81;4385514;32;33322;-90
2021/11/16 02:50:00;;;;;;;;;;;;;;;10.17;63.80;101104.50;4397038;32;32003;-92
2021/11/16 02:53:02;;;;;;;;;;;;;;;9.81;64.97;101099.06;4371686;32;33095;-91
2021/11/16 02:55:30;;;;;;;;;;;;;;;9.94;64.63;101095.28;4377739;32;33700;-91
2021/11/16 02:58:32;;;;;;;;;;;;;;;10.46;62.54;101088.91;4400510;32;33083;-91
2021/11/16 03:01:39;;;;;;;;;;;;;;;10.09;64.00;101093.22;4414872;32;32243;-91
2021/11/16 03:04:35;;;;;;;;;;;;;;;10.26;63.24;101096.41;4391841;32;34015;-91
2021/11/16 03:07:28;;;;;;;;;;;;;;;10.08;63.96;101076.53;4424834;32;33706;-92
2021/11/16 03:10:23;;;;;;;;;;;;;;;9.84;64.67;101088.47;4393479;32;33610;-92
2021/11/16 03:12:50;;;;;;;;;;;;;;;10.20;63.33;101085.94;4393851;32;32739;-91
2021/11/16 03:15:34;;;;;;;;;;;;;;;10.05;63.85;101091.56;4374934;32;32812;-89
2021/11/16 03:18:22;;;;;;;;;;;;;;;9.82;64.53;101094.66;4376912;32;32834;-92
2021/11/16 03:21:13;;;;;;;;;;;;;;;9.98;63.77;101094.31;4382836;32;32597;-92
2021/11/16 03:24:05;;;;;;;;;;;;;;;9.69;64.62;101094.91;4416911;32;32913;-94
2021/11/16 03:27:02;;;;;;;;;;;;;;;10.17;62.88;101094.81;4375410;32;33096;-94
2021/11/16 03:29:57;;;;;;;;;;;;;;;10.22;62.74;101094.72;4399861;32;35132;-92
2021/11/16 03:37:03;;;;;;;;;;;;;;;10.09;63.07;101093.22;4306459;33;31783;-94
2021/11/16 03:39:42;;;;;;;;;;;;;;;10.23;62.38;101096.44;4276105;33;32824;-94
2021/11/16 03:42:34;;;;;;;;;;;;;;;10.16;62.92;101094.81;4310687;33;33384;-94
2021/11/16 03:45:14;;;;;;;;;;;;;;;10.39;62.30;101075.88;4316118;33;34017;-94
2021/11/16 03:48:05;;;;;;;;;;;;;;;10.16;62.89;101086.91;4299085;33;32309;-93
2021/11/16 03:50:44;;;;;;;;;;;;;;;10.36;61.87;101082.09;4297247;33;32885;-93
2021/11/16 03:57:36;;;;;;;;;;;;;;;9.73;63.51;101078.13;4293308;33;34880;-93
2021/11/16 04:00:35;;;;;;;;;;;;;;;9.24;64.44;101075.53;4317296;33;32565;-91
2021/11/16 04:07:30;;;;;;;;;;;;;;;9.61;62.94;101081.00;4319519;33;35879;-94
2021/11/16 04:10:22;;;;;;;;;;;;;;;9.69;61.82;101072.94;4352474;32;33015;-94
2021/11/16 04:17:14;;;;;;;;;;;;;;;9.32;62.30;101076.28;4375787;32;35620;-96
2021/11/16 04:20:03;;;;;;;;;;;;;;;9.42;61.90;101066.44;4398763;32;34660;-96
2021/11/16 04:22:58;;;;;;;;;;;;;;;9.09;62.89;101070.53;4355511;32;32547;-95
2021/11/16 04:25:38;;;;;;;;;;;;;;;9.51;61.49;101062.75;4417793;32;34003;-95
2021/11/16 04:39:06;;;;;;;;;;;;;;;8.84;63.13;101060.41;4404277;32;34299;-96
2021/11/16 04:42:07;;;;;;;;;;;;;;;9.02;62.61;101060.97;4398202;32;34773;-96
2021/11/16 04:48:52;;;;;;;;;;;;;;;8.90;63.20;101069.97;4398648;32;35386;-96
2021/11/16 05:04:05;;;;;;;;;;;;;;;8.70;64.35;101072.94;4354155;32;27916;-95
2021/11/16 05:06:45;;;;;;;;;;;;;;;8.45;65.96;101067.16;4413889;32;34198;-95
2021/11/16 05:09:36;;;;;;;;;;;;;;;9.00;63.72;101068.94;4390723;32;33220;-96
2021/11/16 05:12:31;;;;;;;;;;;;;;;9.15;63.38;101062.50;4404093;32;35443;-96
2021/11/16 05:15:26;;;;;;;;;;;;;;;9.05;63.17;101074.13;4399255;32;34102;-92
2021/11/16 05:18:05;;;;;;;;;;;;;;;9.15;62.56;101079.19;4396351;32;33911;-94
2021/11/16 05:25:00;;;;;;;;;;;;;;;9.15;63.27;101089.72;4383132;32;34944;-96
2021/11/16 05:27:51;;;;;;;;;;;;;;;8.75;64.73;101081.63;4403246;32;32121;-95
2021/11/16 05:30:30;;;;;;;;;;;;;;;9.14;63.70;101084.50;4378967;32;32746;-94
2021/11/16 05:33:24;;;;;;;;;;;;;;;9.07;64.02;101082.84;4342570;32;33363;-90
2021/11/16 05:36:16;;;;;;;;;;;;;;;8.83;65.10;101074.50;4364822;32;33004;-95
2021/11/16 05:39:07;;;;;;;;;;;;;;;8.85;65.11;101075.31;4366159;32;31272;-95
2021/11/16 05:41:47;;;;;;;;;;;;;;;8.94;64.98;101076.94;4402548;32;33879;-93
2021/11/16 05:44:38;;;;;;;;;;;;;;;9.17;64.30;101079.19;4378189;32;33907;-93
2021/11/16 05:47:18;;;;;;;;;;;;;;;9.03;64.80;101075.91;4378183;32;32933;-93
2021/11/16 05:50:07;;;;;;;;;;;;;;;9.14;64.25;101084.50;4384687;32;32112;-91
2021/11/16 05:52:45;;;;;;;;;;;;;;;9.24;64.17;101086.06;4397199;32;33218;-91
2021/11/16 05:55:13;;;;;;;;;;;;;;;9.47;63.22;101083.88;4384743;32;32689;-92
2021/11/16 05:57:55;;;;;;;;;;;;;;;9.45;63.00;101080.44;4423751;32;32713;-93
2021/11/16 06:00:49;;;;;;;;;;;;;;;9.04;64.17;101090.81;4358141;32;31709;-84
2021/11/16 06:03:17;;;;;;;;;;;;;;;8.77;65.26;101090.38;4375202;32;33618;-88
2021/11/16 06:05:44;;;;;;;;;;;;;;;8.92;64.80;101095.38;4375365;32;33342;-87
2021/11/16 06:08:19;;;;;;;;;;;;;;;8.94;64.71;101100.66;4375760;32;33880;-92
2021/11/16 06:11:07;;;;;;;;;;;;;;;8.84;65.03;101099.94;4374235;32;32388;-93
2021/11/16 06:13:38;;;;;;;;;;;;;;;9.24;63.50;101099.25;4375889;32;33148;-91
2021/11/16 06:16:07;;;;;;;;;;;;;;;9.26;63.23;101096.56;4376020;32;33103;-91
2021/11/16 06:18:35;;;;;;;;;;;;;;;9.41;63.03;101102.47;4376108;32;33411;-89
2021/11/16 06:21:31;;;;;;;;;;;;;;;9.35;63.21;101105.22;4375893;32;31851;-94
2021/11/16 06:24:19;;;;;;;;;;;;;;;9.49;62.82;101110.22;4373659;32;33351;-90
2021/11/16 06:26:47;;;;;;;;;;;;;;;9.55;62.46;101111.91;4375771;32;34036;-90
2021/11/16 06:29:14;;;;;;;;;;;;;;;9.81;61.42;101114.03;4362620;32;33806;-91
2021/11/16 06:31:41;;;;;;;;;;;;;;;9.41;62.93;101117.41;4332091;32;32547;-88
2021/11/16 06:34:09;;;;;;;;;;;;;;;9.40;62.52;101118.28;4353965;32;32662;-88
2021/11/16 06:36:38;;;;;;;;;;;;;;;9.37;62.26;101119.22;4363326;32;34287;-88
2021/11/16 06:39:07;;;;;;;;;;;;;;;9.88;60.96;101120.94;4349311;32;34195;-91
2021/11/16 06:41:35;;;;;;;;;;;;;;;9.84;61.30;101116.62;4335767;32;33023;-91
2021/11/16 06:44:03;;;;;;;;;;;;;;;9.91;61.34;101119.06;4338790;32;35740;-90
2021/11/16 06:46:32;;;;;;;;;;;;;;;10.07;60.98;101121.44;4338584;32;33013;-89
2021/11/16 06:49:00;;;;;;;;;;;;;;;9.99;61.02;101114.53;4339152;32;33595;-89
2021/11/16 06:51:28;;;;;;;;;;;;;;;10.12;60.63;101119.56;4339876;33;32664;-88
2021/11/16 06:53:56;;;;;;;;;;;;;;;9.87;61.24;101119.16;4372229;32;34060;-89
2021/11/16 06:56:25;;;;;;;;;;;;;;;9.91;60.87;101116.44;4334092;33;33441;-88
2021/11/16 06:58:52;;;;;;;;;;;;;;;9.98;60.47;101122.47;4348965;32;33792;-89
2021/11/16 07:01:20;;;;;;;;;;;;;;;10.21;59.78;101117.59;4372625;32;33583;-89
2021/11/16 07:03:49;;;;;;;;;;;;;;;9.86;61.49;101120.06;4370019;32;33760;-89
2021/11/16 07:06:16;;;;;;;;;;;;;;;10.29;59.70;101114.81;4339410;32;33665;-88
2021/11/16 07:08:45;;;;;;;;;;;;;;;10.22;60.31;101105.28;4350435;32;34080;-88
2021/11/16 07:11:17;;;;;;;;;;;;;;;10.01;61.78;101112.72;4345616;32;33447;-88
2021/11/16 07:14:01;;;;;;;;;;;;;;;10.21;61.38;101114.09;4352951;32;33027;-87
2021/11/16 07:16:32;;;;;;;;;;;;;;;10.34;60.79;101105.00;4356261;32;33786;-91
2021/11/16 07:19:01;;;;;;;;;;;;;;;10.43;60.18;101118.03;4370860;32;33296;-92
2021/11/16 07:21:56;;;;;;;;;;;;;;;10.41;60.30;101114.56;4382289;32;30734;-91
2021/11/16 07:24:41;;;;;;;;;;;;;;;10.66;59.13;101100.78;4416736;32;32833;-94
2021/11/16 07:27:36;;;;;;;;;;;;;;;10.39;60.19;101107.56;4419743;32;32833;-95
2021/11/16 07:30:16;;;;;;;;;;;;;;;10.48;60.07;101110.00;4381273;32;33181;-96
2021/11/16 07:33:12;;;;;;;;;;;;;;;10.41;60.08;101106.62;4402958;32;33775;-95
2021/11/16 07:35:51;;;;;;;;;;;;;;;10.32;61.15;101114.75;4418796;32;33222;-95
2021/11/16 07:38:48;;;;;;;;;;;;;;;10.42;60.95;101115.44;4359336;32;32412;-96
2021/11/16 07:41:27;;;;;;;;;;;;;;;10.66;59.39;101111.34;4391633;32;33708;-91
2021/11/16 07:44:12;;;;;;;;;;;;;;;10.78;59.01;101113.72;4409519;32;33288;-94
2021/11/16 07:46:54;;;;;;;;;;;;;;;10.97;58.06;101120.31;4382227;32;32903;-95
2021/11/16 07:49:49;;;;;;;;;;;;;;;11.13;57.95;101112.00;4416774;32;33246;-95
2021/11/16 07:52:28;;;;;;;;;;;;;;;10.86;59.11;101134.66;4414362;32;33000;-94
2021/11/16 07:55:20;;;;;;;;;;;;;;;10.43;61.21;101141.78;4400563;32;31790;-95
2021/11/16 07:58:04;;;;;;;;;;;;;;;10.54;61.32;101143.31;4377980;32;33663;-95
2021/11/16 08:00:45;;;;;;;;;;;;;;;10.39;61.50;101150.66;4384097;32;34696;-96
2021/11/16 08:03:43;;;;;;;;;;;;;;;10.19;62.51;101134.34;4414544;32;33818;-93
2021/11/16 08:06:34;;;;;;;;;;;;;;;9.67;63.13;101140.66;4378638;32;31763;-95
2021/11/16 08:15:10;;;;;;;;;;;;;;;10.34;60.49;101141.97;4438249;32;34029;-93
2021/11/16 08:21:55;;;;;;;;;;;;;;;9.52;62.92;101148.84;4410857;32;35009;-95
2021/11/16 08:24:48;;;;;;;;;;;;;;;9.78;61.61;101143.97;4397922;32;33112;-94
2021/11/16 08:27:31;;;;;;;;;;;;;;;9.88;61.48;101137.63;4394574;32;32595;-94
2021/11/16 08:30:23;;;;;;;;;;;;;;;9.81;62.39;101149.19;4382937;32;32529;-93
2021/11/16 08:33:03;;;;;;;;;;;;;;;9.92;62.08;101143.69;4406451;32;32272;-93
2021/11/16 08:35:54;;;;;;;;;;;;;;;10.35;60.40;101143.75;4395093;32;33491;-93
2021/11/16 08:38:34;;;;;;;;;;;;;;;10.14;60.75;101141.50;4354867;32;32965;-95
2021/11/16 08:41:31;;;;;;;;;;;;;;;10.26;60.46;101146.56;4402795;32;32160;-94
2021/11/16 08:44:15;;;;;;;;;;;;;;;9.67;62.13;101141.53;4412062;32;33747;-95
2021/11/16 08:47:07;;;;;;;;;;;;;;;9.49;62.62;101142.75;4384994;32;33418;-94
2021/11/16 08:49:46;;;;;;;;;;;;;;;9.63;62.25;101146.88;4405403;32;34091;-95
2021/11/16 08:52:37;;;;;;;;;;;;;;;9.69;62.04;101149.44;4391912;32;32081;-94
2021/11/16 08:55:19;;;;;;;;;;;;;;;9.69;62.47;101136.25;4403898;32;33689;-94
2021/11/16 08:58:14;;;;;;;;;;;;;;;10.08;61.10;101147.78;4392240;32;32988;-93
2021/11/16 09:00:55;;;;;;;;;;;;;;;10.14;61.14;101141.50;4416851;32;34048;-95
2021/11/16 09:03:47;;;;;;;;;;;;;;;9.73;62.33;101143.16;4388596;32;31565;-95
2021/11/16 09:06:28;;;;;;;;;;;;;;;9.94;61.85;101141.91;4393764;32;34006;-94
2021/11/16 09:09:19;;;;;;;;;;;;;;;9.64;62.26;101141.59;4409929;32;32888;-93
2021/11/16 09:11:58;;;;;;;;;;;;;;;9.65;62.68;101143.34;4402088;32;32645;-94
2021/11/16 09:14:53;;;;;;;;;;;;;;;9.72;62.49;101134.41;4408916;32;31820;-95
2021/11/16 09:17:32;;;;;;;;;;;;;;;9.80;63.51;101131.63;4395392;32;32418;-94
2021/11/16 09:20:25;;;;;;;;;;;;;;;10.33;60.85;101140.25;4381791;32;34036;-95
2021/11/16 09:23:05;;;;;;;;;;;;;;;10.20;61.00;101139.59;4394279;32;32928;-96
2021/11/16 09:26:08;;;;;;;;;;;;;;;10.63;59.67;101124.63;4398619;32;33184;-95
2021/11/16 09:28:50;;;;;;;;;;;;;;;10.75;59.41;101117.28;4391239;32;32728;-95
2021/11/16 09:31:45;;;;;;;;;;;;;;;10.36;60.47;101129.63;4388933;32;32805;-94
2021/11/16 09:34:24;;;;;;;;;;;;;;;10.69;59.68;101116.59;4395360;32;34179;-95
2021/11/16 09:37:19;;;;;;;;;;;;;;;11.10;59.11;101107.63;4385922;32;32082;-96
2021/11/16 09:44:05;;;;;;;;;;;;;;;10.92;58.78;101111.63;4381892;32;35011;-95
2021/11/16 09:46:58;;;;;;;;;;;;;;;10.85;59.22;101112.66;4386190;32;33870;-94
2021/11/16 09:49:39;;;;;;;;;;;;;;;10.66;59.39;101100.78;4388757;32;32108;-95
2021/11/16 09:52:34;;;;;;;;;;;;;;;10.71;60.08;101104.19;4391929;32;32782;-96
2021/11/16 09:55:14;;;;;;;;;;;;;;;10.24;60.83;101095.56;4412936;32;33983;-95
2021/11/16 09:58:11;;;;;;;;;;;;;;;10.74;59.78;101101.50;4395076;32;33890;-95
2021/11/16 10:00:50;;;;;;;;;;;;;;;10.40;60.04;101086.41;4386211;32;31891;-95
2021/11/16 10:03:42;;;;;;;;;;;;;;;10.32;60.79;101088.34;4403385;32;32688;-95
2021/11/16 10:06:22;;;;;;;;;;;;;;;10.87;59.87;101089.72;4408943;32;34814;-95
2021/11/16 10:09:04;;;;;;;;;;;;;;;11.05;58.39;101069.00;4419657;32;32866;-95
2021/11/16 10:11:56;;;;;;;;;;;;;;;10.98;58.84;101081.53;4409349;32;32715;-95
2021/11/16 10:14:35;;;;;;;;;;;;;;;10.73;59.62;101075.97;4412328;32;33929;-95
2021/11/16 10:17:26;;;;;;;;;;;;;;;10.58;59.46;101074.53;4385277;32;34323;-95
2021/11/16 10:20:05;;;;;;;;;;;;;;;11.16;57.96;101061.69;4367550;32;32468;-94
2021/11/16 10:22:58;;;;;;;;;;;;;;;11.29;57.83;101060.44;4375752;32;31776;-96
2021/11/16 10:25:39;;;;;;;;;;;;;;;11.46;57.50;101052.06;4396818;32;34352;-94
2021/11/16 10:28:32;;;;;;;;;;;;;;;11.20;57.93;101061.56;4407288;32;32584;-95
2021/11/16 10:31:11;;;;;;;;;;;;;;;11.48;60.78;101051.09;4398204;32;32963;-95
2021/11/16 10:33:54;;;;;;;;;;;;;;;12.04;55.53;101045.12;4412986;32;32384;-95
2021/11/16 10:36:45;;;;;;;;;;;;;;;12.05;54.88;101037.13;4377471;32;34462;-95
2021/11/16 10:39:24;;;;;;;;;;;;;;;12.34;54.06;101037.16;4395549;32;33371;-96
2021/11/16 10:42:15;;;;;;;;;;;;;;;12.43;54.46;101035.09;4405299;32;32755;-95
2021/11/16 10:44:59;;;;;;;;;;;;;;;12.04;53.63;101032.75;4381961;32;31778;-96
2021/11/16 10:47:51;;;;;;;;;;;;;;;12.37;51.73;101032.66;4384793;32;32843;-95
2021/11/16 10:50:31;;;;;;;;;;;;;;;12.53;51.44;101025.97;4407825;32;32974;-95
2021/11/16 10:53:23;;;;;;;;;;;;;;;13.13;49.26;101023.06;4416085;32;33196;-95
2021/11/16 10:56:03;;;;;;;;;;;;;;;13.39;49.53;101007.16;4399501;32;31997;-95
2021/11/16 10:58:55;;;;;;;;;;;;;;;13.88;48.58;101020.37;4384981;32;33204;-94
2021/11/16 11:01:47;;;;;;;;;;;;;;;13.47;49.05;101018.31;4374408;32;33069;-96
2021/11/16 11:04:41;;;;;;;;;;;;;;;13.28;48.91;101020.78;4392553;32;32634;-94
2021/11/16 11:07:22;;;;;;;;;;;;;;;13.61;49.09;101009.87;4419854;32;32340;-93
2021/11/16 11:10:13;;;;;;;;;;;;;;;13.90;46.88;100994.62;4386882;32;32797;-94
2021/11/16 11:12:53;;;;;;;;;;;;;;;14.08;45.67;100991.28;4421073;32;32976;-94
2021/11/16 11:15:44;;;;;;;;;;;;;;;14.27;46.21;100994.91;4395936;32;32669;-94
2021/11/16 11:18:48;;;;;;;;;;;;;;;13.62;47.47;100994.81;4395927;32;32010;-93
2021/11/16 11:21:42;;;;;;;;;;;;;;;13.06;49.89;100994.13;4405025;32;32790;-95
2021/11/16 11:24:28;;;;;;;;;;;;;;;13.91;46.38;100981.31;4397515;32;34261;-95
2021/11/16 11:28:00;;;;;;;;;;;;;;;13.69;47.48;100978.59;4421569;32;32846;-96
2021/11/16 11:30:39;;;;;;;;;;;;;;;13.76;48.41;100973.91;4426087;32;32375;-95
2021/11/16 11:37:36;;;;;;;;;;;;;;;14.32;45.82;100968.16;4411335;32;35009;-94
2021/11/16 11:40:36;;;;;;;;;;;;;;;14.67;44.39;100956.13;4393151;32;32632;-95
2021/11/16 11:43:27;;;;;;;;;;;;;;;13.76;46.09;100965.97;4395731;32;32175;-95
2021/11/16 11:46:06;;;;;;;;;;;;;;;13.95;45.75;100961.66;4400131;32;34088;-95
2021/11/16 11:49:07;;;;;;;;;;;;;;;14.43;45.12;100959.75;4404428;32;32948;-94
2021/11/16 11:51:46;;;;;;;;;;;;;;;13.97;46.51;100961.63;4389807;32;33097;-94
2021/11/16 11:54:51;;;;;;;;;;;;;;;13.74;46.81;100949.25;4394432;32;31934;-95
2021/11/16 11:57:32;;;;;;;;;;;;;;;13.19;48.89;100954.75;4386106;32;32465;-96
2021/11/16 12:00:24;;;;;;;;;;;;;;;13.65;48.26;100952.25;4382278;32;34148;-94
2021/11/16 12:03:15;;;;;;;;;;;;;;;14.09;46.68;100932.78;4398151;32;34058;-94
2021/11/16 12:05:54;;;;;;;;;;;;;;;14.26;46.52;100931.25;4394981;32;32922;-94
2021/11/16 12:08:45;;;;;;;;;;;;;;;14.22;47.62;100922.53;4377694;32;33181;-95
2021/11/16 12:15:27;;;;;;;;;;;;;;;14.34;46.30;100931.78;4426751;32;35004;-94
2021/11/16 12:18:20;;;;;;;;;;;;;;;13.96;47.51;100928.91;4411892;32;31854;-95
2021/11/16 12:20:59;;;;;;;;;;;;;;;14.41;46.82;100921.75;4375373;32;32854;-90
2021/11/16 12:23:43;;;;;;;;;;;;;;;14.21;47.91;100922.59;4369146;32;34664;-91
2021/11/16 12:26:12;;;;;;;;;;;;;;;14.05;47.15;100925.88;4367547;32;34247;-91
2021/11/16 12:28:44;;;;;;;;;;;;;;;14.07;47.70;100928.47;4379929;32;32110;-90
2021/11/16 12:31:28;;;;;;;;;;;;;;;14.03;48.13;100922.41;4382568;32;32795;-91
2021/11/16 12:33:59;;;;;;;;;;;;;;;14.08;48.16;100922.22;4380160;32;32580;-91
2021/11/16 12:36:48;;;;;;;;;;;;;;;13.39;49.65;100926.66;4400468;32;33974;-91
2021/11/16 12:39:22;;;;;;;;;;;;;;;13.77;48.71;100917.28;4369969;32;32362;-91
2021/11/16 12:42:11;;;;;;;;;;;;;;;13.37;50.50;100921.44;4397086;32;33781;-90
2021/11/16 12:44:50;;;;;;;;;;;;;;;13.49;50.30;100905.06;4384970;32;33345;-91
2021/11/16 12:47:17;;;;;;;;;;;;;;;13.71;49.90;100899.78;4397845;32;32661;-90
2021/11/16 12:49:49;;;;;;;;;;;;;;;13.56;49.83;100906.53;4391698;32;33419;-91
2021/11/16 12:52:21;;;;;;;;;;;;;;;13.41;50.66;100911.56;4384619;32;33935;-90
2021/11/16 12:54:53;;;;;;;;;;;;;;;13.11;51.57;100911.78;4400422;32;32740;-91
2021/11/16 12:57:21;;;;;;;;;;;;;;;13.28;50.17;100906.72;4396348;32;32817;-90
2021/11/16 12:59:50;;;;;;;;;;;;;;;13.04;50.88;100913.75;4374629;32;33605;-90
2021/11/16 13:02:21;;;;;;;;;;;;;;;12.76;52.30;100911.22;4395161;32;33293;-90
2021/11/16 13:04:50;;;;;;;;;;;;;;;12.86;52.76;100909.09;4401063;32;32680;-89
2021/11/16 13:07:27;;;;;;;;;;;;;;;13.10;51.17;100912.66;4371307;32;32900;-90
2021/11/16 13:09:59;;;;;;;;;;;;;;;12.87;51.61;100910.00;4415528;32;33270;-90
2021/11/16 13:12:33;;;;;;;;;;;;;;;12.62;52.63;100902.03;4391703;32;34222;-90
2021/11/16 13:15:01;;;;;;;;;;;;;;;12.86;52.37;100898.50;4385783;32;33177;-90
2021/11/16 13:17:46;;;;;;;;;;;;;;;12.57;53.46;100900.38;4374884;32;33248;-89
2021/11/16 13:20:16;;;;;;;;;;;;;;;13.07;51.86;100896.88;4398486;32;31696;-89
2021/11/16 13:22:52;;;;;;;;;;;;;;;13.34;51.05;100895.03;4386283;32;32917;-90
2021/11/16 13:25:49;;;;;;;;;;;;;;;13.26;51.97;100897.09;4393439;32;32701;-90
2021/11/16 13:31:22;;;;;;;;;;;;;;;12.80;51.59;100893.44;4393261;32;33093;-90
2021/11/16 13:34:20;;;;;;;;;;;;;;;13.30;50.56;100899.59;4396213;32;33314;-90
2021/11/16 13:36:49;;;;;;;;;;;;;;;13.38;50.55;100898.41;4392957;32;34481;-91
2021/11/16 13:39:30;;;;;;;;;;;;;;;13.43;51.44;100894.66;4392777;32;32585;-89
2021/11/16 13:42:08;;;;;;;;;;;;;;;13.31;51.50;100884.53;4391674;32;32312;-90
2021/11/16 13:44:41;;;;;;;;;;;;;;;13.11;51.79;100890.56;4394423;32;34076;-90
2021/11/16 13:47:12;;;;;;;;;;;;;;;13.37;51.46;100888.72;4379787;32;33113;-90
2021/11/16 13:49:42;;;;;;;;;;;;;;;13.53;50.72;100888.09;4392412;32;33794;-90
2021/11/16 13:52:10;;;;;;;;;;;;;;;13.55;50.99;100875.62;4404333;32;32105;-90
2021/11/16 13:54:38;;;;;;;;;;;;;;;13.44;51.12;100880.50;4379080;32;33407;-90
2021/11/16 13:57:07;;;;;;;;;;;;;;;12.93;52.35;100877.97;4404082;32;33245;-90
2021/11/16 13:59:35;;;;;;;;;;;;;;;13.01;52.22;100873.25;4404791;32;33178;-90
2021/11/16 14:02:03;;;;;;;;;;;;;;;13.26;51.79;100875.88;4391754;32;33451;-90
2021/11/16 14:04:31;;;;;;;;;;;;;;;12.97;52.54;100868.97;4380759;32;33944;-90
2021/11/16 14:07:09;;;;;;;;;;;;;;;12.97;52.96;100875.16;4373807;32;32920;-90
2021/11/16 14:09:37;;;;;;;;;;;;;;;12.43;53.29;100872.66;4396536;32;33275;-90
2021/11/16 14:12:04;;;;;;;;;;;;;;;13.14;51.50;100865.69;4403977;32;32312;-90
2021/11/16 14:14:32;;;;;;;;;;;;;;;13.13;52.03;100870.13;4392248;32;33684;-90
2021/11/16 14:17:06;;;;;;;;;;;;;;;13.42;51.25;100855.78;4366777;32;34022;-90
2021/11/16 14:19:33;;;;;;;;;;;;;;;13.55;50.87;100846.44;4392187;32;34266;-90
2021/11/16 14:22:34;;;;;;;;;;;;;;;13.76;50.00;100849.16;4394112;32;32509;-90
2021/11/16 14:25:12;;;;;;;;;;;;;;;13.45;50.84;100839.78;4394467;32;32311;-90
2021/11/16 14:27:42;;;;;;;;;;;;;;;13.61;50.69;100849.78;4374841;32;32823;-90
2021/11/16 14:30:14;;;;;;;;;;;;;;;13.49;51.33;100830.78;4388268;32;34518;-88
2021/11/16 14:32:59;;;;;;;;;;;;;;;13.74;51.14;100829.78;4372269;32;32733;-89
2021/11/16 14:35:43;;;;;;;;;;;;;;;13.57;51.01;100833.97;4391482;32;33121;-91
2021/11/16 14:38:14;;;;;;;;;;;;;;;13.54;51.19;100827.94;4371602;32;32830;-85
2021/11/16 14:40:42;;;;;;;;;;;;;;;13.50;50.78;100832.50;4365407;32;32963;-84
2021/11/16 14:43:17;;;;;;;;;;;;;;;13.41;51.12;100822.25;4375553;32;32219;-84
2021/11/16 14:45:45;;;;;;;;;;;;;;;13.40;50.95;100817.88;4386284;32;34605;-84
2021/11/16 14:48:18;;;;;;;;;;;;;;;12.90;52.44;100823.25;4384218;32;33498;-85
2021/11/16 14:51:04;;;;;;;;;;;;;;;13.26;51.56;100817.53;4371085;32;34341;-85
2021/11/16 14:53:32;;;;;;;;;;;;;;;13.54;50.67;100812.87;4382871;32;34014;-85
2021/11/16 14:56:10;;;;;;;;;;;;;;;13.48;50.81;100805.16;4383780;32;34924;-84
2021/11/16 14:58:37;;;;;;;;;;;;;;;13.42;51.21;100818.66;4371065;32;33184;-84
2021/11/16 15:01:04;;;;;;;;;;;;;;;13.30;51.75;100824.47;4381974;32;33552;-84
2021/11/16 15:03:32;;;;;;;;;;;;;;;13.36;51.44;100808.28;4385173;32;33291;-85
2021/11/16 15:05:59;;;;;;;;;;;;;;;13.26;51.79;100817.53;4366992;32;33249;-85
2021/11/16 15:08:27;;;;;;;;;;;;;;;13.25;51.78;100816.69;4377956;32;33796;-85
2021/11/16 15:10:59;;;;;;;;;;;;;;;13.25;51.98;100805.22;4382876;32;33902;-84
2021/11/16 15:13:27;;;;;;;;;;;;;;;13.27;51.91;100803.34;4379692;32;33829;-84
2021/11/16 15:15:55;;;;;;;;;;;;;;;13.18;52.18;100808.97;4379518;32;33713;-84
2021/11/16 15:18:23;;;;;;;;;;;;;;;13.09;52.67;100804.88;4387778;32;34588;-84
2021/11/16 15:21:01;;;;;;;;;;;;;;;13.16;52.39;100806.37;4385910;32;33887;-84
2021/11/16 15:23:36;;;;;;;;;;;;;;;13.16;52.42;100808.19;4362413;32;32367;-85
2021/11/16 15:26:20;;;;;;;;;;;;;;;13.21;52.26;100808.88;4394331;32;33153;-84